Time;durP1;ratioP1;P1;durP2;ratioP2;P2;SDS_P1;SDS_P2;PMS_P1;PMS_P2;Temp;Humidity;BMP_temperature;BMP_pressure;BME280_temperature;BME280_humidity;BME280_pressure;Samples;Min_cycle;Max_cycle;Signal;HPM_P1;HPM_P2
2022/04/29 00:00:44;;;;;;;9.67;8.87;;;;;;;11.63;55.37;95423.97;4913613;29;20240;-67
2022/04/29 00:03:11;;;;;;;9.97;8.97;;;;;;;11.58;55.54;95418.31;4943017;29;20217;-67
2022/04/29 00:05:39;;;;;;;8.60;7.90;;;;;;;11.69;55.27;95420.72;4929817;29;20228;-67
2022/04/29 00:08:06;;;;;;;9.30;8.40;;;;;;;11.66;55.33;95418.41;4928178;29;20229;-67
2022/04/29 00:10:32;;;;;;;9.60;8.80;;;;;;;11.70;55.25;95411.84;4944704;29;20264;-67
2022/04/29 00:13:01;;;;;;;9.53;8.73;;;;;;;11.66;55.42;95421.03;4950649;29;20228;-67
2022/04/29 00:15:27;;;;;;;8.97;8.20;;;;;;;11.62;55.18;95414.38;4951075;29;20239;-67
2022/04/29 00:17:52;;;;;;;8.73;8.03;;;;;;;11.54;55.78;95414.28;4945853;28;20217;-67
2022/04/29 00:20:18;;;;;;;9.00;8.30;;;;;;;11.57;55.28;95414.00;4945309;28;20232;-67
2022/04/29 00:22:44;;;;;;;8.77;8.07;;;;;;;11.62;55.29;95409.13;4929183;29;20232;-67
2022/04/29 00:25:11;;;;;;;9.90;9.10;;;;;;;11.72;55.02;95415.16;4927640;28;20320;-67
2022/04/29 00:27:39;;;;;;;10.23;9.43;;;;;;;11.59;55.42;95409.41;4945781;29;20203;-67
2022/04/29 00:30:09;;;;;;;9.43;8.67;;;;;;;11.52;55.23;95406.56;4967637;28;20315;-67
2022/04/29 00:32:35;;;;;;;10.70;9.73;;;;;;;11.38;55.67;95415.75;4985912;28;20278;-67
2022/04/29 00:35:01;;;;;;;9.70;8.90;;;;;;;11.40;55.87;95419.09;4966339;28;20311;-67
2022/04/29 00:37:26;;;;;;;9.38;8.52;;;;;;;11.40;55.82;95408.56;4969037;28;20289;-68
2022/04/29 00:39:52;;;;;;;9.73;8.93;;;;;;;11.30;56.08;95415.66;4954827;28;20220;-69
2022/04/29 00:42:21;;;;;;;9.77;8.97;;;;;;;11.38;55.90;95409.69;4977042;28;20212;-69
2022/04/29 00:44:47;;;;;;;9.47;8.63;;;;;;;11.37;56.04;95402.75;4976953;28;20243;-69
2022/04/29 00:47:16;;;;;;;9.90;9.10;;;;;;;11.38;55.56;95405.22;4975889;28;20233;-69
2022/04/29 00:49:43;;;;;;;9.57;8.70;;;;;;;11.22;56.23;95405.88;4967793;28;20225;-69
2022/04/29 00:52:12;;;;;;;9.97;9.17;;;;;;;11.19;56.56;95410.59;4980222;28;20231;-69
2022/04/29 00:54:40;;;;;;;10.87;9.87;;;;;;;11.22;56.29;95405.03;4956866;28;20221;-69
2022/04/29 00:57:09;;;;;;;9.57;8.73;;;;;;;11.36;55.99;95404.56;4975670;28;20215;-69
2022/04/29 00:59:59;;;;;;;10.57;9.67;;;;;;;11.33;56.04;95399.56;4960704;28;20365;-69
2022/04/29 01:02:24;;;;;;;9.98;9.07;;;;;;;11.42;55.79;95403.16;4964756;28;20237;-70
2022/04/29 01:04:56;;;;;;;10.43;9.53;;;;;;;11.41;55.95;95397.06;4957197;28;20220;-69
2022/04/29 01:07:22;;;;;;;10.77;9.87;;;;;;;11.44;55.61;95383.59;4969019;28;20225;-68
2022/04/29 01:09:48;;;;;;;10.37;9.37;;;;;;;11.44;55.54;95394.13;4977110;28;20215;-68
2022/04/29 01:12:14;;;;;;;9.73;8.82;;;;;;;11.51;55.19;95388.25;4969744;28;20557;-68
2022/04/29 01:14:40;;;;;;;10.77;9.88;;;;;;;11.48;55.46;95386.75;4986194;28;20228;-68
2022/04/29 01:17:06;;;;;;;10.47;9.57;;;;;;;11.41;55.20;95389.16;4971140;28;20230;-68
2022/04/29 01:19:31;;;;;;;11.20;10.20;;;;;;;11.31;55.60;95392.81;4962334;28;20291;-68
2022/04/29 01:22:01;;;;;;;10.07;9.17;;;;;;;11.39;55.77;95388.47;4963499;28;20241;-68
2022/04/29 01:24:26;;;;;;;10.73;9.77;;;;;;;11.37;55.68;95385.16;4953058;28;20213;-68
2022/04/29 01:26:51;;;;;;;11.50;10.50;;;;;;;11.43;55.79;95378.47;4956202;28;20557;-68
2022/04/29 01:29:19;;;;;;;12.02;10.93;;;;;;;11.51;55.51;95378.56;4947685;28;20232;-68
2022/04/29 01:31:46;;;;;;;10.98;10.07;;;;;;;11.57;55.41;95383.22;4941870;28;20230;-68
2022/04/29 01:34:12;;;;;;;11.57;10.57;;;;;;;11.47;55.66;95383.31;4940920;28;20240;-68
2022/04/29 01:36:37;;;;;;;11.30;10.30;;;;;;;11.43;55.78;95368.75;4945546;28;20221;-68
2022/04/29 01:39:02;;;;;;;11.93;10.90;;;;;;;11.57;55.30;95377.94;4953712;28;20229;-68
2022/04/29 01:41:28;;;;;;;9.93;9.10;;;;;;;11.49;55.49;95375.22;4943674;28;20252;-67
2022/04/29 01:43:53;;;;;;;11.30;10.40;;;;;;;11.48;55.41;95377.03;4950228;28;20241;-68
2022/04/29 01:46:19;;;;;;;10.97;10.07;;;;;;;11.57;55.21;95377.94;4952131;28;20564;-68
2022/04/29 01:48:44;;;;;;;12.27;11.17;;;;;;;11.48;55.45;95373.59;4947045;28;20255;-69
2022/04/29 01:51:09;;;;;;;11.27;10.37;;;;;;;11.48;55.71;95384.94;4951520;28;20207;-69
2022/04/29 01:53:35;;;;;;;10.77;9.88;;;;;;;11.46;55.56;95386.88;4949277;28;20461;-69
2022/04/29 01:56:00;;;;;;;11.27;10.35;;;;;;;11.37;56.00;95386.97;4941472;28;20268;-68
2022/04/29 01:58:26;;;;;;;11.20;10.20;;;;;;;11.52;55.69;95389.91;4960918;28;20304;-68
2022/04/29 02:00:51;;;;;;;10.30;9.40;;;;;;;11.59;55.53;95386.53;4961907;28;20240;-68
2022/04/29 02:03:17;;;;;;;11.00;10.02;;;;;;;11.59;55.31;95380.44;4942599;28;20218;-67
2022/04/29 02:05:44;;;;;;;10.90;9.83;;;;;;;11.65;55.15;95387.75;4957195;28;20241;-67
2022/04/29 02:08:09;;;;;;;11.00;10.00;;;;;;;11.57;55.11;95383.22;4953683;28;20233;-67
2022/04/29 02:10:36;;;;;;;10.53;9.63;;;;;;;11.59;55.38;95380.44;4950760;28;20229;-67
2022/04/29 02:13:01;;;;;;;11.57;10.50;;;;;;;11.50;55.72;95384.00;4955679;28;20219;-67
2022/04/29 02:15:27;;;;;;;11.23;10.23;;;;;;;11.54;55.53;95382.69;4970684;28;20267;-67
2022/04/29 02:17:52;;;;;;;10.43;9.60;;;;;;;11.41;55.95;95380.41;4971153;28;20211;-68
2022/04/29 02:20:18;;;;;;;10.70;9.33;;;;;;;11.44;55.78;95385.38;4965800;28;20288;-68
2022/04/29 02:22:43;;;;;;;10.43;9.10;;;;;;;11.34;56.18;95396.00;4962753;28;20291;-68
2022/04/29 02:25:10;;;;;;;10.30;9.47;;;;;;;11.40;55.93;95392.75;4959430;28;20256;-68
2022/04/29 02:27:38;;;;;;;11.07;10.07;;;;;;;11.38;55.93;95394.69;4943461;28;20304;-67
2022/04/29 02:30:05;;;;;;;11.98;10.88;;;;;;;11.36;55.99;95395.81;4946699;28;20220;-66
2022/04/29 02:32:31;;;;;;;11.70;10.60;;;;;;;11.37;56.55;95397.50;4951495;28;20511;-67
2022/04/29 02:34:58;;;;;;;11.10;10.10;;;;;;;11.38;56.45;95399.97;4967784;28;20228;-68
2022/04/29 02:37:23;;;;;;;10.93;10.00;;;;;;;11.44;56.10;95401.19;4961667;28;20231;-67
2022/04/29 02:39:49;;;;;;;10.98;10.00;;;;;;;11.42;56.47;95403.97;4950958;28;20232;-67
2022/04/29 02:42:14;;;;;;;11.53;10.53;;;;;;;11.40;56.65;95399.84;4945329;28;20220;-68
2022/04/29 02:44:40;;;;;;;11.67;10.67;;;;;;;11.43;56.70;95395.09;4949995;28;20265;-67
2022/04/29 02:47:08;;;;;;;11.20;10.20;;;;;;;11.38;56.98;95407.03;4940518;28;20247;-67
2022/04/29 02:49:38;;;;;;;11.25;10.35;;;;;;;11.23;57.76;95398.81;4959428;28;20364;-67
2022/04/29 02:52:06;;;;;;;11.07;10.07;;;;;;;11.11;58.08;95395.53;4939538;28;20315;-68
2022/04/29 02:54:31;;;;;;;11.60;10.60;;;;;;;11.14;58.34;95395.25;4932573;28;20240;-66
2022/04/29 02:56:57;;;;;;;10.83;9.93;;;;;;;11.22;57.91;95405.03;4949052;28;20208;-68
2022/04/29 02:59:22;;;;;;;12.77;11.57;;;;;;;11.26;57.80;95406.44;4951165;28;20240;-67
2022/04/29 03:01:48;;;;;;;11.30;10.40;;;;;;;11.17;58.30;95400.25;4944702;28;20264;-68
2022/04/29 03:04:14;;;;;;;11.75;10.80;;;;;;;11.15;58.17;95388.19;4941033;28;20320;-68
2022/04/29 03:06:40;;;;;;;11.10;10.20;;;;;;;11.27;58.06;95403.63;4950311;28;20233;-67
2022/04/29 03:09:05;;;;;;;11.45;10.43;;;;;;;11.26;58.28;95399.34;4958385;28;20220;-67
2022/04/29 03:11:31;;;;;;;10.73;9.82;;;;;;;11.12;58.10;95402.47;4949061;28;20338;-68
2022/04/29 03:13:57;;;;;;;11.75;10.65;;;;;;;11.17;58.47;95409.91;4963866;28;20285;-67
2022/04/29 03:16:22;;;;;;;11.27;10.27;;;;;;;11.17;58.62;95408.13;4959810;28;20228;-67
2022/04/29 03:18:48;;;;;;;11.60;10.50;;;;;;;11.14;58.64;95410.22;4947357;28;20323;-67
2022/04/29 03:21:13;;;;;;;11.55;10.55;;;;;;;11.16;58.84;95410.91;4960389;28;20220;-68
2022/04/29 03:23:39;;;;;;;11.10;10.13;;;;;;;11.08;59.26;95413.44;4953060;28;20303;-67
2022/04/29 03:26:05;;;;;;;11.97;10.97;;;;;;;10.98;59.81;95413.47;4965454;28;20252;-67
2022/04/29 03:28:31;;;;;;;11.17;10.17;;;;;;;10.95;59.54;95408.50;4946778;28;20245;-67
2022/04/29 03:30:58;;;;;;;11.90;10.80;;;;;;;11.05;59.26;95414.53;4952201;28;20235;-68
2022/04/29 03:33:23;;;;;;;12.23;11.13;;;;;;;11.07;59.37;95412.59;4960899;28;20263;-68
2022/04/29 03:35:53;;;;;;;11.80;10.77;;;;;;;11.14;59.21;95415.47;4961388;28;20225;-69
2022/04/29 03:38:19;;;;;;;11.10;10.10;;;;;;;11.09;59.27;95401.91;4958733;28;20565;-68
2022/04/29 03:40:44;;;;;;;11.87;10.77;;;;;;;11.26;58.84;95411.69;4951036;28;20249;-68
2022/04/29 03:43:12;;;;;;;10.83;9.93;;;;;;;11.20;59.11;95413.09;4953166;28;20259;-68
2022/04/29 03:45:38;;;;;;;10.83;9.93;;;;;;;11.18;59.13;95420.31;4954551;28;20235;-68
2022/04/29 03:48:04;;;;;;;12.07;10.97;;;;;;;11.22;59.13;95419.03;4953855;28;20211;-67
2022/04/29 03:50:29;;;;;;;11.80;10.70;;;;;;;11.21;58.91;95412.13;4957710;28;20231;-67
2022/04/29 03:52:58;;;;;;;11.70;10.50;;;;;;;11.23;59.18;95423.34;4954914;28;21212;-67
2022/04/29 03:55:25;;;;;;;12.45;11.27;;;;;;;11.08;59.88;95426.59;4951556;28;20436;-67
2022/04/29 03:57:53;;;;;;;11.70;10.75;;;;;;;11.02;60.20;95417.47;4951019;28;20231;-66
2022/04/29 04:00:21;;;;;;;10.80;9.80;;;;;;;11.11;59.93;95421.03;4972902;28;20359;-67
2022/04/29 04:02:46;;;;;;;11.17;10.17;;;;;;;11.24;59.32;95424.16;4985748;28;20269;-67
2022/04/29 04:05:12;;;;;;;11.73;10.73;;;;;;;11.17;59.67;95428.34;4961332;28;20228;-67
2022/04/29 04:07:39;;;;;;;10.50;9.50;;;;;;;11.04;60.15;95421.63;4973381;28;20219;-68
2022/04/29 04:10:06;;;;;;;10.63;9.63;;;;;;;11.13;59.89;95442.78;4957513;28;20225;-67
2022/04/29 04:12:40;;;;;;;10.48;9.52;;;;;;;11.17;60.11;95436.22;4963797;28;20260;-67
2022/04/29 04:15:07;;;;;;;10.77;9.70;;;;;;;11.16;60.44;95447.75;4978150;28;20298;-67
2022/04/29 04:17:33;;;;;;;11.10;10.10;;;;;;;11.10;60.60;95446.53;4970333;28;20239;-67
2022/04/29 04:19:58;;;;;;;11.88;10.77;;;;;;;11.12;61.07;95446.38;4957417;28;20229;-67
2022/04/29 04:22:24;;;;;;;11.18;10.07;;;;;;;11.13;60.93;95443.59;4950840;28;20245;-68
2022/04/29 04:24:49;;;;;;;11.80;10.70;;;;;;;11.25;60.13;95446.88;4948572;28;20236;-68
2022/04/29 04:27:15;;;;;;;11.77;10.67;;;;;;;11.31;59.91;95430.50;4962930;28;20219;-69
2022/04/29 04:29:40;;;;;;;10.33;9.43;;;;;;;11.26;59.95;95438.84;4953871;28;20251;-68
2022/04/29 04:32:06;;;;;;;11.00;10.10;;;;;;;11.29;60.28;95432.44;4947996;28;20241;-68
2022/04/29 04:34:49;;;;;;;11.37;10.37;;;;;;;11.24;60.59;95434.69;4956854;28;20228;-69
2022/04/29 04:37:17;;;;;;;11.43;10.43;;;;;;;11.29;60.44;95437.72;4955323;28;20303;-70
2022/04/29 04:39:42;;;;;;;12.18;10.98;;;;;;;11.33;60.02;95444.34;4955875;28;20225;-68
2022/04/29 04:42:08;;;;;;;11.55;10.52;;;;;;;11.29;60.14;95444.78;4947309;28;20209;-68
2022/04/29 04:44:33;;;;;;;11.90;10.70;;;;;;;11.30;60.17;95442.00;4939790;28;20245;-69
2022/04/29 04:46:59;;;;;;;11.88;10.68;;;;;;;11.37;60.31;95444.88;4943592;28;20268;-69
2022/04/29 04:49:24;;;;;;;12.63;11.45;;;;;;;11.42;60.21;95445.28;4950506;28;20243;-69
2022/04/29 04:51:50;;;;;;;13.00;11.80;;;;;;;11.32;60.59;95437.41;4947457;28;20225;-68
2022/04/29 04:54:15;;;;;;;12.63;11.33;;;;;;;11.33;60.76;95438.25;4954085;28;20208;-68
2022/04/29 04:56:41;;;;;;;12.60;11.30;;;;;;;11.39;60.37;95441.13;4941918;28;20234;-67
2022/04/29 04:59:06;;;;;;;13.83;12.17;;;;;;;11.55;59.81;95437.88;4949411;28;20267;-67
2022/04/29 05:01:31;;;;;;;14.67;12.60;;;;;;;11.60;60.20;95430.34;4949978;28;20443;-67
2022/04/29 05:03:57;;;;;;;13.90;12.60;;;;;;;11.63;60.32;95439.78;4958318;28;20239;-68
2022/04/29 05:06:22;;;;;;;13.07;11.88;;;;;;;11.74;60.00;95425.56;4948793;28;20217;-68
2022/04/29 05:08:48;;;;;;;14.93;13.33;;;;;;;11.80;59.79;95427.59;4948654;28;20210;-67
2022/04/29 05:11:13;;;;;;;15.60;13.77;;;;;;;11.85;59.80;95425.34;4952139;28;20242;-68
2022/04/29 05:13:39;;;;;;;17.00;14.57;;;;;;;11.81;59.80;95427.41;4960909;28;20369;-68
2022/04/29 05:16:05;;;;;;;15.23;13.73;;;;;;;11.90;59.72;95431.03;4965650;28;20236;-68
2022/04/29 05:18:30;;;;;;;15.23;13.67;;;;;;;11.80;60.13;95431.03;4962844;28;20212;-70
2022/04/29 05:20:56;;;;;;;15.53;14.03;;;;;;;11.76;60.63;95427.06;4972799;28;20223;-70
2022/04/29 05:23:21;;;;;;;14.77;13.43;;;;;;;11.78;60.37;95429.53;4964900;28;20236;-69
2022/04/29 05:25:47;;;;;;;15.10;13.70;;;;;;;11.95;59.85;95434.03;4969038;28;20227;-70
2022/04/29 05:28:12;;;;;;;15.60;14.00;;;;;;;12.03;59.67;95430.63;4964874;28;20223;-69
2022/04/29 05:30:38;;;;;;;16.07;14.50;;;;;;;12.04;59.80;95442.84;4951469;28;20239;-69
2022/04/29 05:33:05;;;;;;;16.20;14.60;;;;;;;12.12;59.35;95435.00;4946814;28;20239;-70
2022/04/29 05:35:31;;;;;;;16.00;14.30;;;;;;;12.29;59.18;95433.34;4942219;28;20300;-70
2022/04/29 05:37:59;;;;;;;16.77;15.00;;;;;;;12.47;58.75;95426.25;4944426;28;20307;-70
2022/04/29 05:43:08;;;;;;;15.07;13.68;;;;;;;12.50;57.90;95423.28;4939590;28;20278;-70
2022/04/29 05:45:34;;;;;;;14.18;12.65;;;;;;;12.50;57.81;95431.19;4941043;28;20229;-69
2022/04/29 05:47:59;;;;;;;14.77;13.37;;;;;;;12.51;57.96;95429.38;4939327;28;20201;-69
2022/04/29 05:50:25;;;;;;;14.63;13.13;;;;;;;12.49;57.76;95429.56;4939237;28;20224;-68
2022/04/29 05:52:50;;;;;;;13.77;12.48;;;;;;;12.43;58.19;95434.59;4966744;28;20265;-69
2022/04/29 05:55:16;;;;;;;16.20;14.27;;;;;;;12.54;58.11;95439.66;4979653;28;20227;-69
2022/04/29 05:57:41;;;;;;;14.02;12.73;;;;;;;12.56;57.90;95432.41;4971258;28;20278;-68
2022/04/29 06:00:07;;;;;;;15.03;13.63;;;;;;;12.56;57.64;95438.53;4969166;28;20216;-66
2022/04/29 06:02:33;;;;;;;14.50;13.20;;;;;;;12.73;57.49;95439.47;4988170;28;20223;-65
2022/04/29 06:05:03;;;;;;;15.93;14.43;;;;;;;12.88;57.00;95439.69;4957711;28;20225;-65
2022/04/29 06:07:28;;;;;;;14.27;12.97;;;;;;;12.85;57.29;95447.13;4965044;28;20224;-65
2022/04/29 06:09:54;;;;;;;13.90;12.50;;;;;;;12.96;56.93;95452.13;4939263;28;20286;-67
2022/04/29 06:12:19;;;;;;;14.03;12.73;;;;;;;12.98;57.01;95455.44;4941231;28;20316;-66
2022/04/29 06:14:45;;;;;;;13.98;12.75;;;;;;;13.07;56.58;95456.31;4963915;28;20335;-66
2022/04/29 06:17:12;;;;;;;13.57;12.27;;;;;;;12.94;56.42;95454.94;4964705;28;20291;-65
2022/04/29 06:19:38;;;;;;;12.98;11.77;;;;;;;12.90;56.47;95460.69;4933688;28;20226;-66
2022/04/29 06:22:04;;;;;;;13.90;12.63;;;;;;;12.92;56.65;95458.72;4938933;28;20230;-65
2022/04/29 06:24:30;;;;;;;13.27;12.07;;;;;;;13.00;56.25;95459.59;4930676;28;20228;-65
2022/04/29 06:26:56;;;;;;;12.68;11.57;;;;;;;12.77;57.03;95461.91;4940107;28;20201;-65
2022/04/29 06:29:21;;;;;;;12.95;11.68;;;;;;;12.80;56.66;95464.25;4940801;28;20236;-67
2022/04/29 06:31:46;;;;;;;13.20;12.00;;;;;;;12.68;57.09;95454.91;4947259;28;20743;-71
2022/04/29 06:34:12;;;;;;;13.43;12.20;;;;;;;12.82;56.82;95453.53;4946112;28;20232;-70
2022/04/29 06:36:37;;;;;;;13.03;11.83;;;;;;;12.89;56.58;95470.41;4945878;28;20239;-70
2022/04/29 06:39:03;;;;;;;12.23;11.23;;;;;;;12.75;56.77;95463.03;4956908;28;20264;-70
2022/04/29 06:41:28;;;;;;;12.95;11.85;;;;;;;12.87;56.71;95461.81;4947763;28;20247;-68
2022/04/29 06:43:54;;;;;;;13.43;12.13;;;;;;;12.92;56.71;95454.25;4946063;28;20224;-68
2022/04/29 06:46:19;;;;;;;12.75;11.48;;;;;;;13.04;56.42;95465.38;4944200;28;20232;-71
2022/04/29 06:48:45;;;;;;;13.35;12.15;;;;;;;13.16;55.99;95456.22;4944996;28;20299;-68
2022/04/29 06:51:11;;;;;;;13.40;12.05;;;;;;;13.29;55.63;95460.28;4947515;28;20222;-64
2022/04/29 06:53:41;;;;;;;13.60;12.40;;;;;;;13.51;54.73;95459.72;4951808;28;20229;-63
2022/04/29 06:56:06;;;;;;;13.70;12.30;;;;;;;13.64;53.57;95459.28;4959014;28;20231;-66
2022/04/29 06:58:32;;;;;;;12.63;11.43;;;;;;;13.45;54.12;95455.06;4943870;28;20221;-65
2022/04/29 07:00:57;;;;;;;12.38;11.20;;;;;;;13.54;53.85;95461.22;4955696;28;20340;-67
2022/04/29 07:03:23;;;;;;;12.80;11.60;;;;;;;13.52;54.05;95465.81;4941996;28;20220;-68
2022/04/29 07:05:51;;;;;;;12.63;11.43;;;;;;;13.47;53.96;95447.78;4950014;28;20215;-66
2022/04/29 07:08:17;;;;;;;12.63;11.45;;;;;;;13.60;53.62;95464.03;4943534;28;20229;-67
2022/04/29 07:10:42;;;;;;;16.67;12.48;;;;;;;13.77;53.06;95451.72;4950218;28;20273;-65
2022/04/29 07:13:09;;;;;;;12.33;11.23;;;;;;;13.73;52.98;95447.72;4958068;28;20242;-67
2022/04/29 07:15:37;;;;;;;12.55;11.32;;;;;;;13.63;53.08;95447.03;4964635;28;20275;-68
2022/04/29 07:18:03;;;;;;;12.30;11.18;;;;;;;13.78;53.02;95452.53;4981754;28;20259;-68
2022/04/29 07:20:28;;;;;;;13.95;12.65;;;;;;;13.84;53.10;95443.97;4965004;28;20227;-69
2022/04/29 07:22:54;;;;;;;12.90;11.75;;;;;;;13.98;52.45;95445.16;4964064;28;20232;-69
2022/04/29 07:25:19;;;;;;;12.35;11.05;;;;;;;14.10;51.95;95455.25;4945786;28;20244;-70
2022/04/29 07:27:46;;;;;;;12.77;11.48;;;;;;;14.13;51.67;95444.34;4954448;28;20257;-68
2022/04/29 07:30:12;;;;;;;12.13;11.02;;;;;;;14.24;51.37;95445.03;4973570;28;20200;-70
2022/04/29 07:32:37;;;;;;;12.18;11.07;;;;;;;14.32;51.08;95443.22;4967458;28;20266;-67
2022/04/29 07:43:16;;;;;;;11.95;10.88;;;;;;;14.98;49.29;95446.69;4958284;28;20436;-68
2022/04/29 07:45:42;;;;;;;11.93;10.93;;;;;;;15.07;48.93;95447.50;4963373;28;20236;-69
2022/04/29 07:48:08;;;;;;;11.43;10.32;;;;;;;15.09;48.74;95449.97;4969403;28;20204;-70
2022/04/29 07:50:35;;;;;;;10.88;9.90;;;;;;;15.22;47.86;95452.94;4969413;28;20224;-70
2022/04/29 07:53:02;;;;;;;11.18;10.10;;;;;;;15.29;47.30;95445.97;4966045;28;20331;-70
2022/04/29 07:55:28;;;;;;;12.82;10.45;;;;;;;15.06;47.32;95451.16;4966318;28;20243;-68
2022/04/29 07:57:55;;;;;;;10.13;9.00;;;;;;;15.12;45.98;95439.03;4964414;28;20229;-68
2022/04/29 08:00:22;;;;;;;9.27;8.32;;;;;;;15.08;45.61;95445.69;4949839;28;20296;-70
2022/04/29 08:02:48;;;;;;;8.20;7.50;;;;;;;15.04;45.69;95441.72;4948666;28;20208;-69
2022/04/29 08:05:14;;;;;;;9.20;8.40;;;;;;;15.00;45.97;95443.88;4972220;28;20240;-71
2022/04/29 08:07:40;;;;;;;8.55;7.82;;;;;;;14.76;45.95;95442.91;4968182;28;20224;-69
2022/04/29 08:10:06;;;;;;;8.43;7.63;;;;;;;14.83;46.16;95439.59;4965440;28;20231;-68
2022/04/29 08:12:32;;;;;;;8.77;7.90;;;;;;;14.79;45.79;95433.81;4974852;28;20209;-68
2022/04/29 08:14:58;;;;;;;8.13;7.43;;;;;;;14.72;46.77;95438.13;4970131;28;20271;-69
2022/04/29 08:17:25;;;;;;;8.68;7.95;;;;;;;14.76;46.77;95436.81;4973914;28;20787;-67
2022/04/29 08:19:51;;;;;;;8.32;7.63;;;;;;;14.74;46.62;95438.78;4966341;28;20252;-70
2022/04/29 08:22:17;;;;;;;8.95;8.15;;;;;;;14.69;46.82;95426.03;4972315;28;20256;-68
2022/04/29 08:24:43;;;;;;;8.77;8.05;;;;;;;14.70;47.29;95432.16;4979953;28;20396;-68
2022/04/29 08:27:10;;;;;;;10.25;9.35;;;;;;;14.75;47.29;95428.03;4962557;28;20227;-71
2022/04/29 08:29:36;;;;;;;10.00;9.05;;;;;;;14.80;47.71;95432.00;4976011;28;20316;-70
2022/04/29 08:32:04;;;;;;;11.10;9.10;;;;;;;14.73;47.73;95434.50;4964288;28;20283;-70
2022/04/29 08:34:30;;;;;;;10.00;9.15;;;;;;;14.96;46.81;95434.59;4962509;28;20263;-68
2022/04/29 08:36:55;;;;;;;10.52;9.52;;;;;;;15.06;46.10;95437.91;4968693;28;20255;-69
2022/04/29 08:39:21;;;;;;;10.45;9.55;;;;;;;14.95;46.19;95431.13;4970643;28;20212;-68
2022/04/29 08:41:50;;;;;;;10.40;9.52;;;;;;;15.02;46.85;95430.47;4977824;28;20278;-67
2022/04/29 08:44:18;;;;;;;10.43;9.45;;;;;;;15.06;46.37;95426.50;4969799;28;20815;-70
2022/04/29 08:46:45;;;;;;;9.32;8.52;;;;;;;15.08;45.26;95424.50;4966998;28;20224;-70
2022/04/29 08:49:10;;;;;;;9.63;8.68;;;;;;;15.09;45.02;95426.16;4972797;28;20275;-70
2022/04/29 08:51:39;;;;;;;8.93;8.13;;;;;;;15.07;45.32;95422.84;4982610;28;20200;-70
2022/04/29 08:54:04;;;;;;;16.92;9.23;;;;;;;14.98;45.45;95417.56;4965933;28;20299;-70
2022/04/29 08:59:34;;;;;;;8.55;7.72;;;;;;;15.14;44.84;95413.22;4987035;28;20231;-69
2022/04/29 09:02:00;;;;;;;8.75;7.95;;;;;;;15.27;44.47;95413.50;4968672;28;20266;-65
2022/04/29 09:04:25;;;;;;;8.60;7.90;;;;;;;15.40;44.00;95408.50;4963391;28;20227;-66
2022/04/29 09:06:51;;;;;;;8.25;7.43;;;;;;;15.49;43.14;95403.16;4962006;28;20238;-67
2022/04/29 09:09:23;;;;;;;7.75;7.10;;;;;;;15.66;42.41;95415.31;4982919;28;20215;-67
2022/04/29 09:11:48;;;;;;;7.45;6.85;;;;;;;15.65;42.01;95413.69;4966951;28;20289;-69
2022/04/29 09:14:22;;;;;;;8.15;7.40;;;;;;;15.82;41.71;95404.69;4982299;28;20231;-69
2022/04/29 09:16:49;;;;;;;7.88;7.28;;;;;;;15.79;41.77;95404.19;4969090;28;20299;-68
2022/04/29 09:19:35;;;;;;;7.53;6.90;;;;;;;15.78;41.47;95408.69;4982592;28;20317;-68
2022/04/29 09:22:07;;;;;;;7.50;6.70;;;;;;;15.83;41.53;95403.69;4969295;28;20231;-68
2022/04/29 09:24:33;;;;;;;7.50;6.90;;;;;;;15.84;40.41;95401.84;4983729;28;20208;-68
2022/04/29 09:27:00;;;;;;;7.53;6.93;;;;;;;15.81;40.79;95403.03;4963222;28;20355;-68
2022/04/29 09:29:25;;;;;;;7.65;7.05;;;;;;;15.77;41.07;95401.72;4963526;28;20322;-68
2022/04/29 09:31:54;;;;;;;8.18;7.25;;;;;;;15.74;41.11;95396.75;4984346;28;20401;-67
2022/04/29 09:34:21;;;;;;;7.22;6.72;;;;;;;15.87;40.60;95397.00;4968890;28;20251;-66
2022/04/29 09:36:47;;;;;;;10.93;7.22;;;;;;;15.94;40.79;95401.63;4964756;28;20225;-68
2022/04/29 09:39:30;;;;;;;8.90;7.05;;;;;;;15.87;41.30;95390.88;4980526;28;20208;-68
2022/04/29 09:42:00;;;;;;;7.18;6.40;;;;;;;15.99;40.19;95394.78;4963150;28;20272;-67
2022/04/29 09:44:26;;;;;;;8.07;6.93;;;;;;;16.11;40.52;95400.50;4964674;28;20216;-67
2022/04/29 09:46:52;;;;;;;10.98;6.95;;;;;;;16.20;41.14;95393.31;4970952;28;20224;-68
2022/04/29 09:49:19;;;;;;;8.48;7.20;;;;;;;16.27;40.50;95397.72;4969098;28;20235;-68
2022/04/29 09:51:47;;;;;;;7.63;6.93;;;;;;;16.36;39.96;95397.66;4966072;28;20311;-68
2022/04/29 09:54:23;;;;;;;19.40;7.57;;;;;;;15.83;40.51;95393.06;4963886;28;20314;-68
2022/04/29 09:57:02;;;;;;;7.55;6.85;;;;;;;16.33;40.11;95393.53;4962080;28;20234;-68
2022/04/29 09:59:37;;;;;;;7.60;7.00;;;;;;;16.51;40.02;95398.53;4962292;28;20255;-68
2022/04/29 10:02:03;;;;;;;6.90;6.40;;;;;;;16.65;39.24;95400.44;4957105;28;20225;-69
2022/04/29 10:04:31;;;;;;;7.32;6.60;;;;;;;16.67;38.32;95393.09;4959836;28;20232;-68
2022/04/29 10:06:58;;;;;;;7.45;6.75;;;;;;;16.74;39.22;95386.06;4947110;28;20224;-68
2022/04/29 10:09:29;;;;;;;7.15;6.45;;;;;;;16.90;38.07;95378.97;4959203;28;20303;-67
2022/04/29 10:11:57;;;;;;;7.72;7.07;;;;;;;17.05;37.95;95368.34;4966553;28;20212;-68
2022/04/29 10:14:24;;;;;;;6.68;6.10;;;;;;;17.35;37.41;95375.31;4982453;28;20227;-68
2022/04/29 10:21:15;;;;;;;7.07;6.47;;;;;;;17.32;36.23;95366.84;4975883;28;20255;-69
2022/04/29 10:22:25;;;;;;;7.28;5.88;;;;;;;17.68;35.53;95369.56;4962461;28;20266;-68
2022/04/29 10:24:51;;;;;;;7.38;6.80;;;;;;;17.88;36.51;95364.47;4958109;28;20243;-68
2022/04/29 10:27:18;;;;;;;7.40;6.70;;;;;;;18.22;35.62;95360.31;4981073;28;20573;-68
2022/04/29 10:29:44;;;;;;;6.68;6.18;;;;;;;18.30;35.33;95371.66;4969092;28;20270;-68
2022/04/29 10:32:10;;;;;;;6.85;6.30;;;;;;;18.40;33.99;95363.38;4970490;28;20248;-68
2022/04/29 10:34:35;;;;;;;7.43;6.72;;;;;;;18.19;34.60;95366.03;4972576;28;20222;-69
2022/04/29 10:37:08;;;;;;;6.55;5.95;;;;;;;18.22;34.28;95371.78;4954803;28;20229;-68
2022/04/29 10:39:34;;;;;;;6.93;6.32;;;;;;;18.09;34.69;95369.00;4955798;28;20703;-67
2022/04/29 10:42:03;;;;;;;6.82;6.22;;;;;;;18.21;34.68;95364.00;4987464;28;20219;-67
2022/04/29 10:44:29;;;;;;;7.00;6.47;;;;;;;18.31;34.31;95367.19;4968717;28;20252;-67
2022/04/29 10:46:55;;;;;;;7.35;6.63;;;;;;;18.76;33.59;95361.63;4964527;28;20239;-66
2022/04/29 10:49:28;;;;;;;7.00;6.43;;;;;;;18.92;32.98;95359.50;4978749;28;20228;-66
2022/04/29 10:51:56;;;;;;;6.93;6.38;;;;;;;18.62;33.27;95350.84;4974463;28;20223;-65
2022/04/29 10:54:33;;;;;;;7.00;6.35;;;;;;;18.88;33.61;95355.56;4964297;28;20271;-66
2022/04/29 10:57:04;;;;;;;7.25;6.55;;;;;;;19.01;32.94;95356.69;4970834;28;20247;-66
2022/04/29 10:59:48;;;;;;;7.15;6.53;;;;;;;19.16;33.39;95352.03;4979143;28;20742;-66
2022/04/29 11:02:23;;;;;;;7.10;6.47;;;;;;;18.80;33.65;95354.91;4981101;28;20228;-68
2022/04/29 11:04:49;;;;;;;6.97;6.47;;;;;;;18.88;33.67;95344.91;4961355;28;20256;-67
2022/04/29 11:07:38;;;;;;;8.05;7.45;;;;;;;19.04;34.05;95335.78;4954688;28;20228;-67
2022/04/29 11:10:05;;;;;;;7.93;7.22;;;;;;;19.46;33.67;95327.75;4987686;28;20311;-66
2022/04/29 11:12:39;;;;;;;7.28;6.60;;;;;;;19.79;32.20;95326.06;4956653;28;20258;-68
2022/04/29 11:15:10;;;;;;;7.53;6.93;;;;;;;20.05;31.78;95329.84;4965809;28;20227;-69
2022/04/29 11:17:38;;;;;;;7.15;6.55;;;;;;;20.06;31.72;95323.44;4979033;28;20236;-68
2022/04/29 11:20:16;;;;;;;7.43;6.75;;;;;;;19.95;31.73;95324.88;4966120;28;20236;-67
2022/04/29 11:25:50;;;;;;;6.75;6.25;;;;;;;19.80;31.82;95311.69;4958317;28;20239;-67
2022/04/29 11:28:17;;;;;;;6.78;6.28;;;;;;;19.59;32.88;95314.47;4964877;28;20233;-69
2022/04/29 11:30:42;;;;;;;7.82;7.20;;;;;;;19.88;32.37;95315.19;4964893;28;20327;-73
2022/04/29 11:33:08;;;;;;;8.32;7.45;;;;;;;20.03;32.28;95313.19;4970715;28;20319;-68
2022/04/29 11:35:34;;;;;;;8.70;7.90;;;;;;;20.15;31.68;95306.19;4970540;28;20228;-67
2022/04/29 11:37:59;;;;;;;8.05;7.45;;;;;;;20.55;30.78;95305.41;4965003;28;20223;-68
2022/04/29 11:40:28;;;;;;;7.57;6.97;;;;;;;20.46;31.55;95307.47;4957929;28;20231;-67
2022/04/29 11:42:53;;;;;;;8.13;7.53;;;;;;;20.20;32.09;95301.06;4962348;28;20252;-68